Terminal Aerodrome Forecast
Issued by NWS Binghamton, NY

Home | Current Version | Previous Version | Text Only | Print | Product List | Glossary On
Versions: 1 2 3 4 5 6 7 8 9 10 11 12 13 14 15 16 17 18 19 20 21 22 23 24 25
000
FTUS41 KBGM 041336 AAC
TAFAVP
TAF AMD
KAVP 041336Z 0414/0512 07003KT P6SM -SHRA SCT015 OVC035
      TEMPO 0414/0416 4SM -SHRA BR BKN015
     FM041600 03003KT 6SM -SHRA OVC015
     FM042300 07002KT 4SM BR OVC007=

USA.gov is the U.S. government's official web portal to all federal, state and local government web resources and services.